Time;durP1;ratioP1;P1;durP2;ratioP2;P2;SDS_P1;SDS_P2;PMS_P1;PMS_P2;Temp;Humidity;BMP_temperature;BMP_pressure;BME280_temperature;BME280_humidity;BME280_pressure;Samples;Min_cycle;Max_cycle;Signal;HPM_P1;HPM_P2
2021/03/09 00:00:51;;;;;;;13.68;6.78;;;;;;;30.65;26.96;98513.22;5033541;28;20254;-64
2021/03/09 00:03:18;;;;;;;12.85;5.97;;;;;;;30.25;27.53;98508.72;5033364;28;20588;-63
2021/03/09 00:05:44;;;;;;;14.25;6.53;;;;;;;31.46;25.81;98519.97;5033639;28;20315;-63
2021/03/09 00:08:12;;;;;;;11.50;5.57;;;;;;;30.91;26.19;98509.63;5033663;28;20208;-63
2021/03/09 00:10:38;;;;;;;17.23;6.97;;;;;;;30.24;27.49;98509.78;5033563;28;20224;-64
2021/03/09 00:13:04;;;;;;;11.63;6.18;;;;;;;30.14;27.58;98506.66;5033645;28;20192;-64
2021/03/09 00:15:30;;;;;;;13.20;6.38;;;;;;;31.25;26.48;98509.47;5033132;28;20315;-65
2021/03/09 00:17:57;;;;;;;12.13;6.47;;;;;;;30.27;26.97;98511.22;5033638;28;20230;-65
2021/03/09 00:20:24;;;;;;;11.27;5.70;;;;;;;30.00;27.76;98515.81;5032929;28;20212;-64
2021/03/09 00:22:50;;;;;;;12.15;6.43;;;;;;;31.18;26.11;98507.63;5034137;28;20211;-65
2021/03/09 00:25:16;;;;;;;12.65;6.03;;;;;;;30.41;27.67;98507.50;5033884;28;20204;-64
2021/03/09 00:27:42;;;;;;;12.27;6.18;;;;;;;30.12;27.92;98505.22;5033570;28;20218;-64
2021/03/09 00:30:09;;;;;;;12.27;6.40;;;;;;;31.53;26.02;98503.72;5033418;28;20294;-62
2021/03/09 00:32:35;;;;;;;12.55;6.40;;;;;;;30.77;26.67;98500.72;5033314;28;20208;-63
2021/03/09 00:35:02;;;;;;;12.85;6.28;;;;;;;30.26;27.44;98502.28;5033093;28;20231;-63
2021/03/09 00:37:29;;;;;;;14.23;5.82;;;;;;;30.47;27.51;98499.59;5032671;28;20247;-64
2021/03/09 00:39:55;;;;;;;12.45;6.07;;;;;;;31.01;26.47;98494.84;5032580;28;20675;-64
2021/03/09 00:42:21;;;;;;;10.10;5.45;;;;;;;30.09;27.76;98495.66;5032985;28;20239;-64
2021/03/09 00:44:47;;;;;;;14.25;5.88;;;;;;;29.90;28.07;98494.66;5032913;28;20282;-64
2021/03/09 00:47:13;;;;;;;11.55;5.93;;;;;;;31.21;26.25;98492.88;5032632;28;20263;-65
2021/03/09 00:49:40;;;;;;;10.52;5.30;;;;;;;30.49;27.40;98492.09;5032390;28;20204;-64
2021/03/09 00:52:06;;;;;;;11.68;5.90;;;;;;;30.10;27.80;98496.53;5032454;28;20852;-63
2021/03/09 00:54:33;;;;;;;12.50;5.50;;;;;;;31.63;26.54;98495.13;5032744;28;20386;-62
2021/03/09 00:56:59;;;;;;;11.57;5.20;;;;;;;30.71;27.00;98496.19;5032218;28;20311;-64
2021/03/09 00:59:25;;;;;;;12.80;5.15;;;;;;;30.14;27.74;98498.56;5032583;28;20294;-64
2021/03/09 01:01:51;;;;;;;11.23;5.70;;;;;;;30.87;27.30;98494.88;5032276;28;20258;-63
2021/03/09 01:04:17;;;;;;;13.82;6.00;;;;;;;31.01;26.75;98489.44;5032373;28;20579;-64
2021/03/09 01:06:43;;;;;;;9.20;5.13;;;;;;;30.32;27.22;98492.53;5031913;28;20228;-65
2021/03/09 01:09:10;;;;;;;10.38;4.93;;;;;;;29.93;28.12;98493.41;5031766;28;20604;-64
2021/03/09 01:11:37;;;;;;;10.85;5.68;;;;;;;31.09;26.56;98491.91;5032247;28;20657;-64
2021/03/09 01:14:03;;;;;;;9.35;4.93;;;;;;;30.38;27.20;98491.72;5031870;28;20665;-64
2021/03/09 01:16:29;;;;;;;10.23;5.07;;;;;;;30.02;27.92;98487.59;5031907;28;20270;-64
2021/03/09 01:18:55;;;;;;;7.55;4.75;;;;;;;29.38;28.83;98488.16;5031919;28;20335;-64
2021/03/09 01:21:21;;;;;;;11.65;5.50;;;;;;;29.18;29.16;98482.72;5031831;28;20738;-64
2021/03/09 01:23:47;;;;;;;10.43;5.13;;;;;;;28.89;29.43;98476.59;5031801;28;20204;-64
2021/03/09 01:26:14;;;;;;;11.68;5.38;;;;;;;32.14;25.24;98483.28;5031534;28;20667;-64
2021/03/09 01:28:41;;;;;;;9.32;4.18;;;;;;;31.18;26.16;98482.50;5031501;28;20204;-64
2021/03/09 01:31:07;;;;;;;9.43;4.80;;;;;;;30.79;26.99;98479.78;5031135;28;20310;-64
2021/03/09 01:33:33;;;;;;;9.50;4.53;;;;;;;30.66;27.04;98471.72;5031962;28;20295;-63
2021/03/09 01:35:59;;;;;;;11.32;4.85;;;;;;;31.27;26.74;98473.09;5031635;28;20314;-64
2021/03/09 01:38:25;;;;;;;9.10;4.50;;;;;;;30.58;27.20;98474.66;5031607;28;20232;-64
2021/03/09 01:40:51;;;;;;;9.77;5.35;;;;;;;30.32;27.39;98464.72;5031646;28;20188;-64
2021/03/09 01:43:18;;;;;;;8.73;4.60;;;;;;;31.77;25.98;98466.13;5031581;28;20730;-64
2021/03/09 01:45:45;;;;;;;12.60;4.95;;;;;;;31.08;26.59;98458.66;5031943;28;20302;-64
2021/03/09 01:48:14;;;;;;;11.88;4.78;;;;;;;30.46;27.20;98461.00;5031493;28;20204;-64
2021/03/09 01:50:43;;;;;;;10.15;4.85;;;;;;;31.81;26.65;98460.06;5031535;28;20295;-63
2021/03/09 01:53:09;;;;;;;15.38;4.63;;;;;;;31.05;26.43;98455.59;5031353;28;20335;-64
2021/03/09 01:55:36;;;;;;;9.95;4.60;;;;;;;30.36;27.44;98452.47;5031346;28;20230;-64
2021/03/09 01:58:08;;;;;;;12.63;5.38;;;;;;;30.91;27.32;98447.53;5031535;28;20214;-64
2021/03/09 02:00:34;;;;;;;8.48;4.05;;;;;;;31.07;26.50;98446.19;5031628;28;20345;-61
2021/03/09 02:03:01;;;;;;;9.85;4.18;;;;;;;30.30;27.49;98437.16;5030932;28;20679;-63
2021/03/09 02:05:27;;;;;;;12.00;4.53;;;;;;;30.22;28.26;98439.00;5030826;28;20219;-64
2021/03/09 02:07:53;;;;;;;7.28;3.90;;;;;;;31.28;26.90;98434.22;5031328;28;20210;-64
2021/03/09 02:10:21;;;;;;;10.00;4.35;;;;;;;30.50;27.28;98440.63;5030956;28;20371;-64
2021/03/09 02:12:56;;;;;;;8.50;4.60;;;;;;;29.98;27.99;98431.63;5031238;28;20271;-64
2021/03/09 02:15:32;;;;;;;6.05;4.05;;;;;;;31.42;26.29;98426.03;5031287;28;20247;-64
2021/03/09 02:18:05;;;;;;;8.10;4.32;;;;;;;30.61;27.11;98421.09;5030751;28;20199;-64
2021/03/09 02:21:00;;;;;;;7.53;4.47;;;;;;;30.12;27.79;98421.63;5031115;28;20279;-64
2021/03/09 02:23:43;;;;;;;8.85;4.43;;;;;;;31.33;26.36;98422.78;5031111;28;20295;-64
2021/03/09 02:26:30;;;;;;;8.07;3.92;;;;;;;30.50;27.13;98418.22;5030560;28;20717;-64
2021/03/09 02:29:09;;;;;;;8.55;3.97;;;;;;;30.10;27.86;98419.16;5031141;28;20192;-64
2021/03/09 02:31:39;;;;;;;9.00;4.47;;;;;;;31.29;26.38;98419.69;5030835;28;20188;-63
2021/03/09 02:34:10;;;;;;;7.97;4.15;;;;;;;30.43;27.68;98412.88;5031030;28;20219;-64
2021/03/09 02:36:38;;;;;;;7.05;3.88;;;;;;;29.99;27.78;98406.31;5031107;28;20251;-65
2021/03/09 02:39:07;;;;;;;7.40;3.63;;;;;;;31.57;25.84;98418.44;5031064;28;20207;-63
2021/03/09 02:41:41;;;;;;;7.93;3.72;;;;;;;30.66;27.24;98406.09;5031087;28;20543;-64
2021/03/09 02:44:10;;;;;;;7.15;3.88;;;;;;;29.91;28.00;98409.22;5034276;28;20188;-65
2021/03/09 02:46:40;;;;;;;7.65;4.15;;;;;;;30.08;27.68;98405.88;5035069;28;20311;-64
2021/03/09 02:49:09;;;;;;;8.90;4.05;;;;;;;32.38;24.97;98411.22;5034544;28;20235;-64
2021/03/09 02:51:37;;;;;;;8.70;3.80;;;;;;;31.27;26.52;98410.13;5034467;28;20200;-64
2021/03/09 02:54:05;;;;;;;7.03;3.63;;;;;;;30.47;27.01;98407.88;5034684;28;20261;-64
2021/03/09 02:56:32;;;;;;;7.43;3.90;;;;;;;30.81;27.45;98410.19;5035349;28;20232;-65
2021/03/09 02:59:01;;;;;;;7.88;3.90;;;;;;;31.17;26.13;98418.72;5034545;28;20242;-64
2021/03/09 03:01:28;;;;;;;7.22;3.33;;;;;;;30.66;27.11;98406.09;5034407;28;20201;-64
2021/03/09 03:03:56;;;;;;;8.63;4.18;;;;;;;30.26;27.44;98407.91;5034410;28;20203;-65
2021/03/09 03:06:24;;;;;;;7.78;3.75;;;;;;;31.15;26.34;98402.72;5034104;28;20342;-64
2021/03/09 03:08:51;;;;;;;8.77;3.63;;;;;;;30.56;27.19;98402.00;5033748;28;20211;-64
2021/03/09 03:11:19;;;;;;;9.80;4.00;;;;;;;30.22;27.31;98397.75;5034039;28;20651;-64
2021/03/09 03:13:46;;;;;;;6.88;3.65;;;;;;;31.32;26.04;98403.03;5034142;28;20218;-64
2021/03/09 03:16:13;;;;;;;6.88;3.42;;;;;;;30.64;27.19;98392.81;5033689;28;20228;-64
2021/03/09 03:18:42;;;;;;;6.53;3.72;;;;;;;30.14;27.99;98396.09;5034283;28;20698;-65
2021/03/09 03:21:11;;;;;;;7.20;4.00;;;;;;;31.35;26.60;98399.88;5034303;28;20306;-64
2021/03/09 03:23:38;;;;;;;6.53;3.33;;;;;;;30.77;26.56;98398.16;5034068;28;20239;-65
2021/03/09 03:26:06;;;;;;;6.93;3.53;;;;;;;30.31;27.55;98401.03;5034733;28;20325;-64
2021/03/09 03:28:34;;;;;;;6.63;3.70;;;;;;;30.47;27.18;98397.88;5034668;28;20199;-63
2021/03/09 03:31:01;;;;;;;5.88;3.25;;;;;;;31.21;26.22;98402.91;5034235;28;20235;-63
2021/03/09 03:33:28;;;;;;;7.43;3.63;;;;;;;30.40;27.46;98392.53;5034474;28;20222;-64
2021/03/09 03:35:54;;;;;;;6.80;3.65;;;;;;;29.94;27.70;98398.03;5033359;28;20305;-61
2021/03/09 03:38:22;;;;;;;7.97;3.38;;;;;;;31.18;25.98;98398.78;5033696;28;20204;-63
2021/03/09 03:40:48;;;;;;;8.40;3.60;;;;;;;30.52;27.18;98395.38;5033253;28;20750;-63
2021/03/09 03:43:14;;;;;;;6.50;3.03;;;;;;;29.97;27.98;98398.44;5033627;28;20290;-63
2021/03/09 03:45:40;;;;;;;8.40;3.90;;;;;;;31.29;26.25;98394.53;5034116;28;20629;-62
2021/03/09 03:48:07;;;;;;;5.95;3.10;;;;;;;31.47;25.79;98391.88;5033567;28;20299;-63
2021/03/09 03:50:34;;;;;;;6.88;3.33;;;;;;;30.67;26.69;98399.69;5033982;28;20234;-62
2021/03/09 03:53:10;;;;;;;5.65;2.95;;;;;;;30.05;27.49;98398.19;5033480;28;20216;-64
2021/03/09 03:55:49;;;;;;;4.93;2.70;;;;;;;31.25;25.87;98394.16;5032287;28;20228;-64
2021/03/09 03:58:23;;;;;;;7.22;3.13;;;;;;;30.27;27.10;98398.75;5033004;28;20188;-64
2021/03/09 04:00:51;;;;;;;6.63;3.10;;;;;;;29.93;27.67;98393.66;5032736;28;20187;-64
2021/03/09 04:03:17;;;;;;;6.03;3.08;;;;;;;31.62;26.06;98394.28;5033496;28;20580;-64
2021/03/09 04:05:46;;;;;;;5.43;2.75;;;;;;;30.61;26.83;98394.09;5033762;28;20238;-64
2021/03/09 04:08:14;;;;;;;6.70;3.30;;;;;;;30.08;27.50;98383.47;5033483;28;20204;-64
2021/03/09 04:10:42;;;;;;;6.15;3.13;;;;;;;31.32;26.33;98388.69;5033012;28;20188;-64
2021/03/09 04:13:08;;;;;;;5.18;2.95;;;;;;;30.65;26.67;98390.97;5032724;28;20443;-64
2021/03/09 04:15:36;;;;;;;5.25;2.60;;;;;;;30.08;27.15;98386.19;5032299;28;20315;-62
2021/03/09 04:18:03;;;;;;;4.88;2.80;;;;;;;30.23;27.47;98375.97;5033196;28;20616;-64
2021/03/09 04:20:30;;;;;;;5.05;2.70;;;;;;;30.95;26.36;98381.25;5032373;28;20295;-64
2021/03/09 04:22:58;;;;;;;5.72;2.85;;;;;;;30.17;27.10;98376.81;5032375;28;20239;-64
2021/03/09 04:25:24;;;;;;;6.22;3.20;;;;;;;29.96;27.61;98377.91;5032397;28;20247;-64
2021/03/09 04:27:52;;;;;;;7.40;3.17;;;;;;;31.60;25.97;98376.66;5032248;28;20184;-64
2021/03/09 04:30:19;;;;;;;6.32;2.63;;;;;;;30.77;26.68;98373.88;5032956;28;20208;-63
2021/03/09 04:32:46;;;;;;;4.97;2.90;;;;;;;30.34;26.93;98373.63;5032858;28;20433;-63
2021/03/09 04:35:12;;;;;;;6.32;2.97;;;;;;;29.82;27.76;98374.41;5032280;28;20285;-64
2021/03/09 04:37:40;;;;;;;5.40;3.20;;;;;;;29.48;28.27;98380.84;5032925;28;20263;-61
2021/03/09 04:40:08;;;;;;;4.00;2.50;;;;;;;30.66;27.08;98379.13;5033522;28;20234;-64
2021/03/09 04:45:12;;;;;;;6.90;2.90;;;;;;;32.07;25.75;98383.25;5098649;22;20243;-64
2021/03/09 04:47:38;;;;;;;6.30;2.88;;;;;;;31.09;26.08;98390.09;5011868;28;20295;-63
2021/03/09 04:50:08;;;;;;;4.25;2.70;;;;;;;30.92;26.71;98384.38;5012055;28;20726;-64
2021/03/09 04:52:34;;;;;;;5.60;2.63;;;;;;;32.51;24.63;98379.63;5011873;28;20204;-64
2021/03/09 04:55:03;;;;;;;3.50;2.28;;;;;;;31.55;25.82;98388.13;5011703;28;20714;-64
2021/03/09 04:57:37;;;;;;;6.03;3.00;;;;;;;30.99;26.58;98379.81;5011879;28;20244;-64
2021/03/09 05:00:05;;;;;;;7.85;2.70;;;;;;;31.26;25.79;98371.50;5012321;28;20370;-62
2021/03/09 05:02:32;;;;;;;6.10;3.22;;;;;;;32.19;24.95;98380.66;5012465;28;20254;-64
2021/03/09 05:04:58;;;;;;;4.63;2.30;;;;;;;31.50;25.28;98387.94;5011680;28;20308;-63
2021/03/09 05:07:25;;;;;;;5.63;2.30;;;;;;;30.85;26.38;98386.28;5012124;28;20718;-63
2021/03/09 05:09:51;;;;;;;5.05;2.78;;;;;;;32.14;25.06;98382.38;5012090;28;20368;-63
2021/03/09 05:12:17;;;;;;;3.60;2.20;;;;;;;32.03;24.81;98379.34;5011473;28;20307;-63
2021/03/09 05:14:43;;;;;;;4.43;2.30;;;;;;;31.35;26.11;98389.06;5011631;28;20331;-63
2021/03/09 05:17:09;;;;;;;5.05;2.75;;;;;;;30.93;26.19;98386.03;5011857;28;20295;-63
2021/03/09 05:19:36;;;;;;;4.45;2.33;;;;;;;32.63;23.97;98380.56;5011578;28;20299;-63
2021/03/09 05:22:03;;;;;;;5.43;2.58;;;;;;;31.91;25.48;98394.66;5011218;28;20307;-63
2021/03/09 05:24:29;;;;;;;4.60;2.33;;;;;;;31.23;26.29;98390.84;5011509;28;20283;-64
2021/03/09 05:26:55;;;;;;;4.90;2.38;;;;;;;31.22;25.77;98399.16;5011251;28;20285;-64
2021/03/09 05:29:22;;;;;;;3.92;2.25;;;;;;;32.16;24.35;98400.03;5011604;28;20350;-63
2021/03/09 05:31:48;;;;;;;4.68;2.15;;;;;;;31.71;25.09;98395.66;5011137;28;20319;-64
2021/03/09 05:34:14;;;;;;;5.05;2.35;;;;;;;31.08;25.73;98396.56;5011130;28;20220;-63
2021/03/09 05:36:41;;;;;;;3.72;2.08;;;;;;;30.87;26.23;98397.69;5011217;28;20260;-64
2021/03/09 05:39:07;;;;;;;4.38;2.10;;;;;;;32.43;24.71;98392.41;5011386;28;20204;-63
2021/03/09 05:41:33;;;;;;;3.70;2.38;;;;;;;31.69;24.80;98399.63;5011284;28;20236;-64
2021/03/09 05:44:02;;;;;;;3.88;2.10;;;;;;;31.03;25.76;98400.94;5010761;28;20220;-63
2021/03/09 05:46:28;;;;;;;4.10;2.17;;;;;;;30.68;26.07;98396.75;5010777;28;20347;-64
2021/03/09 05:48:55;;;;;;;6.13;2.30;;;;;;;32.40;23.97;98395.59;5011132;28;20291;-63
2021/03/09 05:51:21;;;;;;;3.05;1.75;;;;;;;31.93;25.43;98400.66;5011600;28;20205;-64
2021/03/09 05:53:48;;;;;;;3.78;2.20;;;;;;;31.08;26.30;98399.25;5010714;28;20247;-64
2021/03/09 05:56:15;;;;;;;6.18;2.35;;;;;;;30.58;26.55;98399.09;5011023;28;20315;-63
2021/03/09 05:58:41;;;;;;;3.35;2.05;;;;;;;31.65;24.85;98404.66;5010976;28;20295;-64
2021/03/09 06:01:07;;;;;;;2.58;1.92;;;;;;;32.83;23.52;98404.66;5010994;28;20727;-64
2021/03/09 06:03:33;;;;;;;4.03;2.28;;;;;;;31.71;25.46;98409.19;5010984;28;20658;-64
2021/03/09 06:06:00;;;;;;;4.43;2.22;;;;;;;30.98;25.96;98404.31;5010940;28;20336;-63
2021/03/09 06:08:30;;;;;;;4.28;2.08;;;;;;;31.44;25.62;98407.72;5011104;28;20299;-63
2021/03/09 06:11:12;;;;;;;4.50;2.25;;;;;;;32.26;24.38;98403.03;5010996;28;20323;-63
2021/03/09 06:13:38;;;;;;;3.97;2.15;;;;;;;31.50;25.42;98401.44;5011125;28;20247;-62
2021/03/09 06:16:05;;;;;;;2.55;1.70;;;;;;;30.95;25.96;98402.88;5010786;28;20559;-64
2021/03/09 06:18:31;;;;;;;5.22;2.60;;;;;;;30.42;26.38;98397.69;5010616;28;20232;-64
2021/03/09 06:21:11;;;;;;;4.88;2.40;;;;;;;30.04;26.44;98401.09;5010725;28;20204;-64
2021/03/09 06:23:38;;;;;;;5.80;2.10;;;;;;;30.04;26.58;98403.81;5010609;28;20315;-63
2021/03/09 06:26:25;;;;;;;7.30;2.45;;;;;;;31.58;25.88;98411.19;5010887;28;20204;-64
2021/03/09 06:29:06;;;;;;;9.95;2.35;;;;;;;32.55;24.65;98402.50;5010794;28;20302;-64
2021/03/09 06:31:32;;;;;;;34.75;4.70;;;;;;;31.33;25.79;98407.38;5010713;28;20280;-65
2021/03/09 06:34:26;;;;;;;36.28;4.72;;;;;;;30.15;28.32;98403.16;5010718;28;20315;-65
2021/03/09 06:37:07;;;;;;;15.50;3.95;;;;;;;32.47;25.02;98406.31;5010224;28;20637;-66
2021/03/09 06:39:48;;;;;;;18.67;3.42;;;;;;;30.75;26.69;98415.63;5010511;28;20220;-68
2021/03/09 06:42:15;;;;;;;14.00;3.40;;;;;;;30.56;27.11;98399.31;5010444;28;20272;-64
2021/03/09 06:44:47;;;;;;;21.20;3.40;;;;;;;30.97;26.33;98408.06;5010393;28;20323;-68
2021/03/09 06:47:13;;;;;;;9.88;3.55;;;;;;;31.83;25.30;98412.00;5010601;28;20646;-70
2021/03/09 06:49:51;;;;;;;17.52;3.72;;;;;;;31.03;26.40;98412.59;5010893;28;20295;-68
2021/03/09 06:52:19;;;;;;;19.15;3.15;;;;;;;30.58;26.85;98410.72;5010688;28;20294;-68
2021/03/09 06:54:47;;;;;;;11.88;3.17;;;;;;;29.87;27.85;98404.25;5010461;28;20746;-68
2021/03/09 06:57:13;;;;;;;13.10;3.25;;;;;;;29.46;28.34;98409.84;5010626;28;20563;-68
2021/03/09 06:59:44;;;;;;;17.88;3.80;;;;;;;29.24;28.30;98410.03;5011175;28;20245;-68
2021/03/09 07:02:12;;;;;;;9.43;2.88;;;;;;;30.81;26.67;98409.38;5011122;28;20201;-69
2021/03/09 07:04:39;;;;;;;12.32;2.40;;;;;;;32.22;25.45;98419.94;5011223;28;20626;-66
2021/03/09 07:07:07;;;;;;;6.57;2.80;;;;;;;31.10;26.24;98421.47;5011321;28;20205;-67
2021/03/09 07:09:35;;;;;;;15.38;3.20;;;;;;;30.54;27.13;98417.56;5011534;28;20205;-69
2021/03/09 07:12:02;;;;;;;11.30;2.75;;;;;;;31.29;26.42;98419.69;5011054;28;20200;-67
2021/03/09 07:14:31;;;;;;;14.18;2.92;;;;;;;32.34;24.90;98420.00;5011157;28;20315;-65
2021/03/09 07:17:02;;;;;;;11.43;2.75;;;;;;;31.06;27.01;98427.50;5010893;28;20275;-67
2021/03/09 07:19:35;;;;;;;11.43;3.03;;;;;;;30.58;25.90;98426.09;5011683;28;20220;-66
2021/03/09 07:22:03;;;;;;;10.77;3.20;;;;;;;30.56;26.37;98429.00;5011788;28;20719;-68
2021/03/09 07:24:30;;;;;;;17.35;3.15;;;;;;;31.81;24.54;98434.88;5011548;28;20609;-65
2021/03/09 07:27:03;;;;;;;11.95;3.15;;;;;;;30.87;26.45;98437.38;5011049;28;20319;-65
2021/03/09 07:29:35;;;;;;;14.48;3.65;;;;;;;30.55;26.43;98434.59;5011369;28;20208;-65
2021/03/09 07:32:07;;;;;;;7.05;2.53;;;;;;;31.11;26.03;98430.38;5014169;28;20189;-65
2021/03/09 07:34:35;;;;;;;9.15;2.83;;;;;;;30.76;25.81;98434.31;5013926;28;20307;-64
2021/03/09 07:37:01;;;;;;;10.90;2.83;;;;;;;31.39;25.21;98432.69;5013466;28;20762;-65
2021/03/09 07:39:29;;;;;;;8.75;2.75;;;;;;;32.16;24.46;98437.06;5013672;28;20204;-65
2021/03/09 07:41:56;;;;;;;6.70;2.70;;;;;;;33.22;23.26;98431.41;5013752;28;20274;-65
2021/03/09 07:44:23;;;;;;;12.43;2.75;;;;;;;32.33;23.32;98435.44;5013647;28;20224;-65
2021/03/09 07:46:50;;;;;;;7.80;2.53;;;;;;;31.39;24.93;98432.69;5013606;28;20189;-65
2021/03/09 07:49:19;;;;;;;6.80;2.47;;;;;;;31.11;24.91;98435.78;5013152;28;20215;-65
2021/03/09 07:52:14;;;;;;;10.63;2.50;;;;;;;32.59;23.56;98433.44;5013986;28;20626;-63
2021/03/09 07:55:01;;;;;;;8.45;2.65;;;;;;;32.62;22.83;98433.84;5013324;28;20247;-65
2021/03/09 07:57:28;;;;;;;12.80;3.25;;;;;;;31.01;25.17;98435.44;5013173;28;20709;-64
2021/03/09 07:59:56;;;;;;;6.43;2.55;;;;;;;30.72;26.03;98426.84;5013611;28;20294;-64
2021/03/09 08:02:42;;;;;;;15.80;2.90;;;;;;;30.27;27.17;98436.50;5013411;28;20208;-64
2021/03/09 08:05:13;;;;;;;12.52;2.78;;;;;;;30.36;26.63;98428.19;5013740;28;20228;-63
2021/03/09 08:07:57;;;;;;;7.45;2.50;;;;;;;31.14;26.05;98433.50;5013221;28;20256;-63
2021/03/09 08:10:41;;;;;;;6.50;2.25;;;;;;;32.01;25.75;98432.81;5013262;28;20586;-66
2021/03/09 08:13:27;;;;;;;13.70;2.55;;;;;;;32.22;24.48;98437.00;5011963;28;20474;-64
2021/03/09 08:16:33;;;;;;;4.40;2.08;;;;;;;32.53;23.99;98432.50;5012627;28;20278;-65
2021/03/09 08:19:07;;;;;;;5.30;1.90;;;;;;;32.55;25.36;98434.97;5012829;28;20189;-64
2021/03/09 08:21:55;;;;;;;8.75;2.10;;;;;;;31.73;25.16;98433.28;5013274;28;20260;-65
2021/03/09 08:24:53;;;;;;;4.97;1.80;;;;;;;30.93;26.21;98431.09;5012711;28;20604;-63
2021/03/09 08:27:37;;;;;;;7.20;2.20;;;;;;;31.67;25.61;98434.19;5013691;28;20236;-64
2021/03/09 08:30:39;;;;;;;4.22;1.92;;;;;;;32.54;25.98;98436.84;5015817;28;20243;-64
2021/03/09 08:33:35;;;;;;;11.70;2.15;;;;;;;33.18;23.73;98439.19;5020499;28;20216;-68
2021/03/09 08:36:34;;;;;;;6.22;2.47;;;;;;;31.87;25.86;98442.91;5021331;28;20212;-68
2021/03/09 08:39:15;;;;;;;8.57;2.03;;;;;;;31.11;26.49;98436.63;5020648;28;20192;-68
2021/03/09 08:41:57;;;;;;;6.65;2.45;;;;;;;32.21;25.41;98437.22;5018150;28;20200;-68
2021/03/09 08:44:24;;;;;;;7.80;2.40;;;;;;;32.99;24.68;98432.94;5013132;28;20302;-68
2021/03/09 08:46:53;;;;;;;6.55;2.03;;;;;;;32.83;24.14;98429.03;5012904;28;20200;-68
2021/03/09 08:49:55;;;;;;;6.05;2.08;;;;;;;31.43;25.78;98433.09;5012868;28;20303;-67
2021/03/09 08:52:44;;;;;;;7.53;2.05;;;;;;;31.45;26.49;98431.00;5005784;28;20212;-67
2021/03/09 08:55:11;;;;;;;5.80;2.10;;;;;;;32.49;24.95;98430.44;5012854;28;20232;-67
2021/03/09 08:57:37;;;;;;;4.45;1.80;;;;;;;33.24;24.70;98426.59;5013141;28;20679;-67
2021/03/09 09:00:09;;;;;;;3.45;1.90;;;;;;;32.09;25.00;98420.91;5012665;28;20669;-65
2021/03/09 09:02:40;;;;;;;8.65;2.38;;;;;;;31.10;26.32;98426.06;5012818;28;20189;-66
2021/03/09 09:05:08;;;;;;;6.25;2.22;;;;;;;31.53;26.29;98419.97;5013061;28;20228;-70
2021/03/09 09:07:36;;;;;;;10.40;2.22;;;;;;;32.65;24.74;98416.34;5012493;28;20212;-69
2021/03/09 09:10:09;;;;;;;4.47;1.92;;;;;;;33.15;24.83;98423.34;5012312;28;20197;-69
2021/03/09 09:12:37;;;;;;;3.92;2.10;;;;;;;31.76;25.67;98415.78;5012099;28;20219;-67
2021/03/09 09:15:11;;;;;;;5.90;1.80;;;;;;;31.14;27.02;98414.59;5012575;28;20228;-69
2021/03/09 09:17:39;;;;;;;6.07;2.05;;;;;;;31.90;25.65;98412.75;5012187;28;20235;-67
2021/03/09 09:20:07;;;;;;;5.78;2.25;;;;;;;32.74;25.57;98406.84;5012439;28;20663;-67
2021/03/09 09:22:34;;;;;;;3.40;1.77;;;;;;;32.77;24.72;98408.25;5012353;28;20209;-65
2021/03/09 09:25:03;;;;;;;12.27;2.53;;;;;;;31.91;26.20;98414.41;5012203;28;20698;-66
2021/03/09 09:27:38;;;;;;;4.40;1.83;;;;;;;31.05;27.27;98405.09;5011981;28;20616;-69
2021/03/09 09:30:06;;;;;;;3.00;2.00;;;;;;;31.89;25.51;98410.25;5012241;28;20188;-65
2021/03/09 09:32:43;;;;;;;5.10;2.15;;;;;;;32.93;25.88;98404.09;5011278;28;20209;-64
2021/03/09 09:35:10;;;;;;;6.05;2.00;;;;;;;32.69;25.01;98403.97;5012018;28;20725;-67
2021/03/09 09:37:44;;;;;;;3.47;1.70;;;;;;;31.81;26.72;98408.69;5011996;28;20231;-68
2021/03/09 09:40:11;;;;;;;5.70;1.92;;;;;;;31.05;27.29;98409.69;5012342;28;20217;-68
2021/03/09 09:42:38;;;;;;;4.88;1.50;;;;;;;32.19;26.80;98407.72;5012201;28;20237;-66
2021/03/09 09:45:06;;;;;;;5.75;1.73;;;;;;;33.28;24.65;98403.41;5011971;28;20607;-67
2021/03/09 09:47:33;;;;;;;8.30;1.70;;;;;;;32.64;25.69;98401.13;5012022;28;20208;-67
2021/03/09 09:50:03;;;;;;;6.93;1.50;;;;;;;31.55;27.13;98409.75;5013191;28;20208;-70
2021/03/09 09:52:29;;;;;;;3.08;1.75;;;;;;;31.02;27.68;98410.94;5012498;28;20202;-69
2021/03/09 09:54:56;;;;;;;7.70;1.67;;;;;;;32.71;25.87;98399.19;5012870;28;20615;-68
2021/03/09 09:57:23;;;;;;;8.70;1.90;;;;;;;31.82;27.23;98412.22;5011832;28;20223;-67
2021/03/09 09:59:50;;;;;;;3.47;1.90;;;;;;;30.90;28.18;98410.75;5012044;28;20509;-67
2021/03/09 10:02:20;;;;;;;5.20;2.17;;;;;;;30.27;27.94;98403.31;5011149;28;20231;-69
2021/03/09 10:04:46;;;;;;;4.30;2.10;;;;;;;31.58;26.58;98401.19;5010655;28;20716;-68
2021/03/09 10:07:17;;;;;;;4.45;1.90;;;;;;;32.60;25.79;98400.75;5010770;28;20255;-65
2021/03/09 10:10:04;;;;;;;5.38;2.17;;;;;;;32.85;24.96;98396.28;5010979;28;20500;-66
2021/03/09 10:12:35;;;;;;;4.60;1.80;;;;;;;31.58;26.53;98403.09;5010828;28;20189;-66
2021/03/09 10:15:04;;;;;;;7.72;2.20;;;;;;;31.06;27.37;98400.50;5010504;28;20263;-67
2021/03/09 10:17:30;;;;;;;6.72;1.80;;;;;;;31.08;27.13;98401.16;5010968;28;20240;-65
2021/03/09 10:19:56;;;;;;;5.80;1.75;;;;;;;32.25;25.87;98400.56;5011138;28;20341;-69
2021/03/09 10:22:25;;;;;;;2.90;1.70;;;;;;;33.35;24.92;98406.81;5010897;28;20212;-68
2021/03/09 10:24:51;;;;;;;8.70;2.17;;;;;;;32.30;26.18;98400.69;5011044;28;20233;-69
2021/03/09 10:27:18;;;;;;;30.70;2.53;;;;;;;31.71;28.30;98408.38;5010754;28;20252;-71
2021/03/09 10:29:45;;;;;;;4.80;1.88;;;;;;;31.20;27.62;98410.19;5010668;28;20200;-72
2021/03/09 10:32:16;;;;;;;8.63;2.38;;;;;;;32.75;25.53;98403.06;5010669;28;20710;-68
2021/03/09 10:34:44;;;;;;;7.18;1.90;;;;;;;33.20;25.72;98393.72;5010651;28;20224;-68
2021/03/09 10:37:11;;;;;;;6.07;2.40;;;;;;;33.86;24.09;98399.94;5010690;28;20239;-69
2021/03/09 10:39:40;;;;;;;6.65;2.47;;;;;;;34.15;23.83;98391.06;5010730;28;20224;-67
2021/03/09 10:42:28;;;;;;;6.78;2.10;;;;;;;33.01;24.33;98393.75;5009998;28;20259;-68
2021/03/09 10:44:56;;;;;;;6.45;2.03;;;;;;;32.14;25.90;98387.78;5010260;28;20323;-67
2021/03/09 10:47:23;;;;;;;3.70;1.60;;;;;;;31.46;26.96;98389.41;5010848;28;20188;-66
2021/03/09 10:49:49;;;;;;;4.97;2.08;;;;;;;32.25;26.45;98387.84;5010671;28;20204;-69
2021/03/09 10:52:16;;;;;;;5.25;1.80;;;;;;;33.24;25.63;98388.66;5011061;28;20209;-66
2021/03/09 10:54:42;;;;;;;3.95;2.00;;;;;;;33.88;24.68;98384.25;5010631;28;20225;-67
2021/03/09 10:57:10;;;;;;;4.35;1.70;;;;;;;32.71;25.29;98382.94;5010613;28;20283;-70
2021/03/09 10:59:37;;;;;;;4.70;1.83;;;;;;;32.08;26.51;98382.22;5010680;28;20617;-67
2021/03/09 11:02:06;;;;;;;5.07;1.77;;;;;;;31.62;27.36;98385.38;5010904;28;20280;-71
2021/03/09 11:04:33;;;;;;;3.92;1.60;;;;;;;33.22;25.41;98379.94;5012856;28;20220;-70
2021/03/09 11:07:00;;;;;;;3.35;1.75;;;;;;;33.91;24.81;98389.19;5014362;28;20296;-68
2021/03/09 11:09:26;;;;;;;3.70;1.70;;;;;;;32.68;25.14;98388.00;5014014;28;20749;-68
2021/03/09 11:11:52;;;;;;;4.18;1.63;;;;;;;31.84;26.09;98388.47;5014067;28;20203;-67
2021/03/09 11:14:18;;;;;;;3.28;1.40;;;;;;;31.40;27.29;98390.31;5014152;28;20595;-69
2021/03/09 11:16:45;;;;;;;12.32;1.90;;;;;;;32.14;27.36;98379.66;5013649;28;20221;-71
2021/03/09 11:19:11;;;;;;;5.20;1.70;;;;;;;31.77;28.25;98376.91;5014473;28;20204;-70
2021/03/09 11:21:38;;;;;;;4.13;1.77;;;;;;;31.39;28.32;98384.06;5013766;28;20220;-70
2021/03/09 11:24:05;;;;;;;7.03;2.05;;;;;;;30.92;27.48;98378.16;5014281;28;20278;-68
2021/03/09 11:26:31;;;;;;;4.68;1.38;;;;;;;31.77;26.33;98376.91;5014315;28;20300;-70
2021/03/09 11:28:58;;;;;;;6.68;1.40;;;;;;;32.39;25.67;98372.28;5014261;28;20208;-73
2021/03/09 11:31:24;;;;;;;7.93;1.45;;;;;;;32.93;24.78;98371.59;5014050;28;20295;-72
2021/03/09 11:33:50;;;;;;;5.25;1.38;;;;;;;32.03;26.10;98362.28;5014575;28;20670;-73
2021/03/09 11:36:17;;;;;;;7.05;1.67;;;;;;;30.85;28.06;98375.50;5013986;28;20233;-72
2021/03/09 11:38:45;;;;;;;3.75;1.63;;;;;;;30.53;28.36;98369.25;5013685;28;20298;-72
2021/03/09 11:41:13;;;;;;;4.43;1.55;;;;;;;31.48;26.95;98371.94;5013649;28;20251;-71
2021/03/09 11:43:40;;;;;;;2.70;1.38;;;;;;;32.01;26.52;98362.50;5013372;28;20237;-71
2021/03/09 11:46:07;;;;;;;5.13;1.60;;;;;;;32.46;25.57;98366.81;5013810;28;20224;-71